createdAt,value
2023-04-06T00:03:33.331Z,100048.44
2023-04-06T00:13:38.080Z,100053.38
2023-04-06T00:23:43.884Z,100050.26
2023-04-06T00:33:48.146Z,100043.89
2023-04-06T00:43:53.822Z,100039.16
2023-04-06T00:53:58.056Z,100039.41
2023-04-06T01:04:04.858Z,100046.36
2023-04-06T01:14:11.129Z,100046.97
2023-04-06T01:24:16.873Z,100036.72
2023-04-06T01:34:21.091Z,100031.90
2023-04-06T01:44:26.833Z,100022.48
2023-04-06T01:54:32.532Z,100016.39
2023-04-06T02:04:38.311Z,100017.80
2023-04-06T02:14:44.375Z,100014.09
2023-04-06T02:24:50.145Z,100005.26
2023-04-06T02:34:56.278Z,100007.52
2023-04-06T02:45:02.211Z,100004.14
2023-04-06T02:55:10.153Z,100006.64
2023-04-06T03:05:16.332Z,100009.78
2023-04-06T03:15:22.240Z,100014.10
2023-04-06T03:25:28.164Z,100020.61
2023-04-06T03:35:34.059Z,100019.84
2023-04-06T03:45:39.760Z,100029.91
2023-04-06T03:55:45.449Z,100027.24
2023-04-06T04:05:51.236Z,100030.20
2023-04-06T04:15:57.345Z,100030.52
2023-04-06T04:26:03.467Z,100023.29
2023-04-06T04:36:11.153Z,100023.21
2023-04-06T04:46:16.887Z,100021.21
2023-04-06T04:56:21.303Z,100017.77
2023-04-06T05:06:27.631Z,100015.06
2023-04-06T05:16:33.396Z,100014.61
2023-04-06T05:26:39.840Z,100013.73
2023-04-06T05:36:45.504Z,100011.85
2023-04-06T05:46:51.380Z,100010.95
2023-04-06T05:56:57.113Z,100002.64
2023-04-06T06:07:02.884Z,99998.42
2023-04-06T06:17:08.755Z,99995.57
2023-04-06T06:27:14.506Z,99990.59
2023-04-06T06:37:20.332Z,99986.16
2023-04-06T06:47:26.632Z,99976.89
2023-04-06T06:57:32.234Z,99973.88
2023-04-06T07:07:38.064Z,99975.15
2023-04-06T07:17:46.259Z,99974.62
2023-04-06T07:27:52.471Z,99971.11
2023-04-06T07:37:58.679Z,99968.46
2023-04-06T07:48:04.878Z,99966.58
2023-04-06T07:58:10.717Z,99965.63
2023-04-06T08:08:16.891Z,99958.14
2023-04-06T08:18:23.263Z,99951.80
2023-04-06T08:28:29.066Z,99942.43
2023-04-06T08:38:34.865Z,99933.95
2023-04-06T08:48:42.937Z,99923.74
2023-04-06T08:58:49.772Z,99931.61
2023-04-06T09:08:55.933Z,99927.90
2023-04-06T09:19:07.762Z,99926.64
2023-04-06T09:29:23.937Z,99916.33
2023-04-06T09:39:29.760Z,99911.40
2023-04-06T09:49:37.067Z,99908.65
2023-04-06T09:59:53.056Z,99901.01
2023-04-06T10:10:01.299Z,99895.67
2023-04-06T10:20:12.764Z,99892.81
2023-04-06T10:30:19.284Z,99884.96
2023-04-06T10:40:29.180Z,99876.90
2023-04-06T10:50:37.811Z,99859.27
2023-04-06T11:00:51.082Z,99847.05
2023-04-06T11:11:08.703Z,99836.52
2023-04-06T11:21:14.510Z,99830.33
2023-04-06T11:31:20.385Z,99829.57
2023-04-06T11:41:31.077Z,99834.91
2023-04-06T11:51:39.431Z,99823.85
2023-04-06T12:01:49.844Z,99813.81
2023-04-06T12:11:55.714Z,99813.70
2023-04-06T12:22:01.857Z,99809.67
2023-04-06T12:32:08.041Z,99796.94
2023-04-06T12:42:15.035Z,99786.36
2023-04-06T12:52:21.456Z,99782.82
2023-04-06T13:02:27.296Z,99769.96
2023-04-06T13:12:33.377Z,99763.90
2023-04-06T13:22:39.221Z,99757.07
2023-04-06T13:32:45.060Z,99753.98
2023-04-06T13:42:51.751Z,99749.73
2023-04-06T13:52:57.808Z,99740.80
2023-04-06T14:03:03.874Z,99729.45
2023-04-06T14:13:10.617Z,99722.05
2023-04-06T14:23:16.901Z,99717.17
2023-04-06T14:33:22.702Z,99716.34
2023-04-06T14:43:28.806Z,99714.73
2023-04-06T14:53:34.708Z,99706.71
2023-04-06T15:03:40.910Z,99702.59
2023-04-06T15:13:47.307Z,99699.89
2023-04-06T15:23:53.760Z,99691.98
2023-04-06T15:33:59.561Z,99679.70
2023-04-06T15:44:05.744Z,99682.77
2023-04-06T15:54:11.574Z,99687.11
2023-04-06T16:04:17.319Z,99685.02
2023-04-06T16:14:23.395Z,99677.39
2023-04-06T16:24:29.811Z,99667.11
2023-04-06T16:34:37.104Z,99668.50
2023-04-06T16:44:42.809Z,99669.87
2023-04-06T16:54:50.126Z,99666.54
2023-04-06T17:04:56.614Z,99665.42
2023-04-06T17:15:02.623Z,99664.63
2023-04-06T17:25:10.524Z,99676.92
2023-04-06T17:35:16.423Z,99690.91
2023-04-06T17:45:22.332Z,99695.23
2023-04-06T17:55:28.071Z,99695.68
2023-04-06T18:05:33.952Z,99696.35
2023-04-06T18:15:39.797Z,99692.04
2023-04-06T18:25:46.212Z,99692.91
2023-04-06T18:35:51.885Z,99699.98
2023-04-06T18:45:57.659Z,99697.02
2023-04-06T18:56:04.494Z,99696.63
2023-04-06T19:06:12.137Z,99690.24
2023-04-06T19:16:18.596Z,99673.89
2023-04-06T19:26:27.310Z,99677.01
2023-04-06T19:36:33.490Z,99668.70
2023-04-06T19:46:39.387Z,99658.73
2023-04-06T19:57:03.581Z,99649.97
2023-04-06T20:07:09.966Z,99637.77
2023-04-06T20:17:15.621Z,99633.67
2023-04-06T20:27:22.370Z,99631.08
2023-04-06T20:37:26.778Z,99641.90
2023-04-06T20:47:32.653Z,99660.79
2023-04-06T20:57:38.642Z,99657.64
2023-04-06T21:07:44.388Z,99647.19
2023-04-06T21:17:50.157Z,99628.67
2023-04-06T21:27:56.698Z,99608.15
2023-04-06T21:38:01.143Z,99593.92
2023-04-06T21:48:07.547Z,99588.48
2023-04-06T21:58:14.161Z,99582.17
2023-04-06T22:08:32.809Z,99576.48
2023-04-06T22:18:39.931Z,99563.42
2023-04-06T22:28:45.802Z,99564.84
2023-04-06T22:38:51.611Z,99562.26
2023-04-06T22:48:57.335Z,99549.69
2023-04-06T22:59:03.398Z,99540.88
2023-04-06T23:09:09.214Z,99526.16
2023-04-06T23:19:15.805Z,99513.29
2023-04-06T23:29:22.021Z,99499.09
2023-04-06T23:39:28.214Z,99490.45
2023-04-06T23:49:36.187Z,99487.90
2023-04-06T23:59:42.071Z,99472.70
